Decoded Metar for GCLA (LA PALMA in SPAIN) (IATA:SPC) | Meteo·Mobile Aviation Weather
aviador You're here:

GCLA Decoded Metar

LA PALMA in SPAIN
Report Time2019-07-16 23:00:00
UTC Time2019-07-16 23:15:23
Flight Rules mvfr MVFR
Wind360° at 14 kt
W.Decomp.*RWY 01: 14.0 kt HW 0.7 kt LCW
Visibility9999 m
Phenomena:N/A
Clouds:Broken 028 Hf
Expected CloudBase > 2,400 ft AGL from Temp-Dew spread
Ceiling2,800 ft
Temp23°C (ISA +8)
Dew Point17°C (69% RH)
AAT20.3°C
QNH1020 hPa
Density Alt1,079 ft
Elevation102 ft
Report Wrong Elevation
Raw Report
GCLA 162300Z AUTO 36014KT 9999 BKN028 23/17 Q1020=

Extra information for GCLA:More info

Metar Taf Metar & Taf Last 4 Metars F.Rules Stats Wind Profile Meteogram Temp Stats Airport Information Weather charts Add Link Nearby VenuesMetar ALERT Operation Metar Decoded Social comments